createdAt,value
2017-11-07T00:00:56.669Z,2.70
2017-11-07T00:03:24.251Z,3.20
2017-11-07T00:05:51.665Z,2.43
2017-11-07T00:08:20.206Z,2.47
2017-11-07T00:10:47.645Z,2.70
2017-11-07T00:13:15.069Z,2.80
2017-11-07T00:15:42.573Z,4.47
2017-11-07T00:18:10.116Z,2.50
2017-11-07T00:20:37.899Z,2.20
2017-11-07T00:23:05.321Z,2.67
2017-11-07T00:25:32.749Z,2.20
2017-11-07T00:28:00.193Z,1.97
2017-11-07T00:30:27.627Z,1.40
2017-11-07T00:32:55.072Z,2.27
2017-11-07T00:35:22.545Z,2.07
2017-11-07T00:37:50.278Z,1.13
2017-11-07T00:40:17.701Z,1.73
2017-11-07T00:42:45.941Z,2.00
2017-11-07T00:45:13.382Z,1.83
2017-11-07T00:47:40.812Z,2.53
2017-11-07T00:50:09.021Z,1.33
2017-11-07T00:52:36.457Z,1.27
2017-11-07T00:55:04.245Z,0.83
2017-11-07T00:57:31.681Z,1.73
2017-11-07T00:59:59.169Z,1.37
2017-11-07T01:02:26.626Z,2.87
2017-11-07T01:04:54.069Z,2.23
2017-11-07T01:07:21.516Z,1.70
2017-11-07T01:09:48.937Z,1.73
2017-11-07T01:12:17.389Z,1.70
2017-11-07T01:14:44.935Z,1.97
2017-11-07T01:17:12.365Z,1.40
2017-11-07T01:19:39.849Z,2.73
2017-11-07T01:22:07.281Z,1.70
2017-11-07T01:24:34.730Z,1.83
2017-11-07T01:27:02.157Z,2.00
2017-11-07T01:29:31.430Z,2.50
2017-11-07T01:31:58.881Z,2.53
2017-11-07T01:34:26.314Z,2.20
2017-11-07T01:36:53.744Z,1.70
2017-11-07T01:39:21.940Z,2.03
2017-11-07T01:41:49.385Z,3.20
2017-11-07T01:44:16.881Z,1.80
2017-11-07T01:46:44.652Z,1.73
2017-11-07T01:49:12.074Z,2.10
2017-11-07T01:51:39.565Z,1.80
2017-11-07T01:54:07.014Z,3.13
2017-11-07T01:56:34.477Z,4.27
2017-11-07T01:59:02.462Z,2.00
2017-11-07T02:01:29.901Z,2.20
2017-11-07T02:03:57.333Z,2.53
2017-11-07T02:06:24.821Z,2.63
2017-11-07T02:08:52.283Z,2.10
2017-11-07T02:11:19.728Z,2.77
2017-11-07T02:13:47.189Z,2.60
2017-11-07T02:16:14.960Z,4.63
2017-11-07T02:18:42.394Z,3.07
2017-11-07T02:21:09.874Z,3.00
2017-11-07T02:23:37.428Z,3.20
2017-11-07T02:26:04.889Z,2.20
2017-11-07T02:28:32.332Z,2.33
2017-11-07T02:30:59.806Z,2.80
2017-11-07T02:33:27.578Z,4.50
2017-11-07T02:35:55.010Z,3.77
2017-11-07T02:38:22.449Z,2.47
2017-11-07T02:40:49.900Z,2.87
2017-11-07T02:43:17.401Z,3.90
2017-11-07T02:45:45.254Z,3.37
2017-11-07T02:48:12.713Z,4.03
2017-11-07T02:50:40.173Z,3.13
2017-11-07T02:53:07.633Z,2.93
2017-11-07T02:55:35.104Z,2.10
2017-11-07T02:58:02.640Z,2.87
2017-11-07T03:00:30.054Z,1.97
2017-11-07T03:02:58.589Z,3.40
2017-11-07T03:05:26.036Z,2.20
2017-11-07T03:07:53.457Z,1.83
2017-11-07T03:10:21.661Z,2.80
2017-11-07T03:12:49.137Z,3.23
2017-11-07T03:15:16.825Z,3.07
2017-11-07T03:17:44.267Z,3.43
2017-11-07T03:20:11.681Z,2.67
2017-11-07T03:22:39.124Z,3.50
2017-11-07T03:25:06.558Z,3.43
2017-11-07T03:27:34.310Z,2.87
2017-11-07T03:30:01.738Z,3.10
2017-11-07T03:32:29.213Z,4.40
2017-11-07T03:34:56.657Z,2.23
2017-11-07T03:37:24.077Z,1.93
2017-11-07T03:39:52.600Z,2.33
2017-11-07T03:42:20.061Z,4.73
2017-11-07T03:44:47.518Z,2.30
2017-11-07T03:47:15.078Z,2.57
2017-11-07T03:49:42.532Z,2.27
2017-11-07T03:52:10.298Z,1.90
2017-11-07T03:54:37.753Z,2.90
2017-11-07T03:57:05.180Z,1.97
2017-11-07T03:59:32.621Z,1.80
2017-11-07T04:02:00.848Z,3.10
2017-11-07T04:04:28.617Z,2.50
2017-11-07T04:06:56.044Z,2.73
2017-11-07T04:09:23.474Z,2.10
2017-11-07T04:11:51.686Z,2.40
2017-11-07T04:14:19.110Z,1.73
2017-11-07T04:16:46.826Z,2.60
2017-11-07T04:19:14.283Z,2.50
2017-11-07T04:21:41.737Z,2.37
2017-11-07T04:24:09.394Z,2.37
2017-11-07T04:26:36.816Z,2.10
2017-11-07T04:29:04.510Z,2.60
2017-11-07T04:31:31.973Z,2.30
2017-11-07T04:33:59.432Z,3.00
2017-11-07T04:36:26.880Z,3.50
2017-11-07T04:38:54.440Z,3.33
2017-11-07T04:41:22.208Z,2.43
2017-11-07T04:43:49.648Z,3.20
2017-11-07T04:46:17.074Z,2.10
2017-11-07T04:48:45.314Z,2.60
2017-11-07T04:51:12.749Z,2.43
2017-11-07T04:53:40.529Z,2.30
2017-11-07T04:56:07.969Z,3.27
2017-11-07T04:58:35.426Z,3.03
2017-11-07T05:01:02.908Z,3.27
2017-11-07T05:03:30.357Z,2.80
2017-11-07T05:05:58.130Z,3.67
2017-11-07T05:08:25.558Z,3.57
2017-11-07T05:10:52.985Z,3.30
2017-11-07T05:13:21.181Z,3.40
2017-11-07T05:15:48.610Z,2.17
2017-11-07T05:18:16.849Z,2.40
2017-11-07T05:20:44.274Z,2.73
2017-11-07T05:23:11.749Z,3.20
2017-11-07T05:25:39.205Z,2.87
2017-11-07T05:28:06.649Z,2.80
2017-11-07T05:30:34.357Z,2.40
2017-11-07T05:33:01.773Z,2.23
2017-11-07T05:35:29.205Z,3.43
2017-11-07T05:37:56.645Z,2.60
2017-11-07T05:40:24.874Z,2.73
2017-11-07T05:42:52.440Z,5.03
2017-11-07T05:45:19.877Z,3.20
2017-11-07T05:47:47.360Z,2.63
2017-11-07T05:50:14.917Z,3.77
2017-11-07T05:52:42.361Z,3.80
2017-11-07T05:55:10.134Z,3.10
2017-11-07T05:57:37.576Z,4.83
2017-11-07T06:00:05.010Z,2.97
2017-11-07T06:02:32.511Z,2.93
2017-11-07T06:04:59.934Z,3.60
2017-11-07T06:07:27.729Z,3.00
2017-11-07T06:09:55.186Z,2.60
2017-11-07T06:12:22.646Z,4.00
2017-11-07T06:14:50.095Z,3.50
2017-11-07T06:17:17.534Z,3.30
2017-11-07T06:19:45.225Z,3.50
2017-11-07T06:22:12.669Z,2.47
2017-11-07T06:24:40.105Z,2.57
2017-11-07T06:27:07.554Z,2.90
2017-11-07T06:29:34.992Z,3.73
2017-11-07T06:32:02.713Z,3.17
2017-11-07T06:34:30.137Z,3.63
2017-11-07T06:36:57.565Z,2.30
2017-11-07T06:39:25.013Z,3.40
2017-11-07T06:41:52.540Z,1.77
2017-11-07T06:44:20.304Z,2.70
2017-11-07T06:46:47.759Z,3.27
2017-11-07T06:49:15.169Z,3.50
2017-11-07T06:51:43.404Z,2.63
2017-11-07T06:54:10.836Z,2.30
2017-11-07T06:56:38.535Z,3.53
2017-11-07T06:59:05.978Z,3.87
2017-11-07T07:01:33.399Z,3.90
2017-11-07T07:04:00.843Z,3.17
2017-11-07T07:06:29.033Z,2.60
2017-11-07T07:08:56.480Z,2.70
2017-11-07T07:11:23.910Z,3.43
2017-11-07T07:13:52.109Z,2.60
2017-11-07T07:16:20.323Z,3.17
2017-11-07T07:18:47.749Z,3.37
2017-11-07T07:21:16.044Z,4.03
2017-11-07T07:23:43.462Z,3.47
2017-11-07T07:26:11.656Z,2.33
2017-11-07T07:28:39.954Z,3.87
2017-11-07T07:31:07.370Z,4.00
2017-11-07T07:33:35.825Z,3.80
2017-11-07T07:36:03.253Z,3.83
2017-11-07T07:38:30.746Z,2.30
2017-11-07T07:40:58.208Z,2.97
2017-11-07T07:43:25.730Z,4.45
2017-11-07T07:45:53.433Z,4.20
2017-11-07T07:48:21.584Z,3.43
2017-11-07T07:50:49.111Z,3.03
2017-11-07T07:53:16.580Z,3.10
2017-11-07T07:55:44.000Z,3.00
2017-11-07T07:58:12.445Z,3.30
2017-11-07T08:00:40.601Z,2.77
2017-11-07T08:03:08.153Z,2.97
2017-11-07T08:05:35.581Z,4.77
2017-11-07T08:08:03.781Z,4.77
2017-11-07T08:10:31.485Z,2.80
2017-11-07T08:12:58.921Z,3.53
2017-11-07T08:15:26.361Z,4.00
2017-11-07T08:17:53.819Z,3.30
2017-11-07T08:20:21.280Z,3.67
2017-11-07T08:22:48.949Z,4.00
2017-11-07T08:25:16.377Z,3.03
2017-11-07T08:27:43.813Z,3.77
2017-11-07T08:30:12.013Z,3.33
2017-11-07T08:32:39.442Z,5.13
2017-11-07T08:35:08.102Z,2.73
2017-11-07T08:37:36.288Z,3.40
2017-11-07T08:40:04.561Z,3.87
2017-11-07T08:42:31.997Z,3.10
2017-11-07T08:44:59.440Z,3.60
2017-11-07T08:47:28.750Z,2.90
2017-11-07T08:49:56.170Z,2.67
2017-11-07T08:52:23.600Z,3.33
2017-11-07T08:54:51.815Z,2.93
2017-11-07T08:57:19.231Z,3.53
2017-11-07T08:59:46.954Z,4.03
2017-11-07T09:02:14.381Z,5.47
2017-11-07T09:04:41.814Z,3.80
2017-11-07T09:07:10.020Z,5.40
2017-11-07T09:09:37.458Z,3.53
2017-11-07T09:12:05.680Z,3.70
2017-11-07T09:14:33.109Z,3.80
2017-11-07T09:17:00.849Z,5.93
2017-11-07T09:19:29.041Z,5.10
2017-11-07T09:21:56.529Z,3.27
2017-11-07T09:24:23.991Z,3.97
2017-11-07T09:26:51.413Z,3.63
2017-11-07T09:29:19.109Z,4.60
2017-11-07T09:31:46.532Z,4.30
2017-11-07T09:34:14.007Z,4.93
2017-11-07T09:36:41.433Z,4.20
2017-11-07T09:39:09.624Z,3.40
2017-11-07T09:41:37.083Z,5.13
2017-11-07T09:44:04.505Z,3.17
2017-11-07T09:46:33.783Z,3.87
2017-11-07T09:49:01.209Z,3.97
2017-11-07T09:51:28.657Z,5.00
2017-11-07T09:53:56.141Z,4.93
2017-11-07T09:56:23.613Z,4.73
2017-11-07T09:58:51.050Z,3.23
2017-11-07T10:01:18.519Z,3.57
2017-11-07T10:03:45.957Z,5.30
2017-11-07T10:06:13.407Z,4.70
2017-11-07T10:08:40.834Z,4.20
2017-11-07T10:11:09.039Z,4.70
2017-11-07T10:13:36.468Z,3.00
2017-11-07T10:16:04.660Z,4.40
2017-11-07T10:18:32.108Z,3.50
2017-11-07T10:21:00.313Z,3.33
2017-11-07T10:23:28.002Z,4.57
2017-11-07T10:25:55.436Z,4.80
2017-11-07T10:28:22.893Z,4.60
2017-11-07T10:30:50.345Z,4.40
2017-11-07T10:33:17.777Z,5.10
2017-11-07T10:35:46.221Z,3.87
2017-11-07T10:38:15.152Z,3.83
2017-11-07T10:40:42.592Z,4.10
2017-11-07T10:43:10.934Z,4.57
2017-11-07T10:45:38.479Z,4.77
2017-11-07T10:48:06.241Z,4.40
2017-11-07T10:50:33.693Z,4.60
2017-11-07T10:53:01.157Z,4.80
2017-11-07T10:55:28.613Z,6.30
2017-11-07T10:57:56.046Z,6.07
2017-11-07T11:00:23.741Z,4.90
2017-11-07T11:02:51.243Z,3.67
2017-11-07T11:05:18.654Z,3.80
2017-11-07T11:07:46.101Z,5.23
2017-11-07T11:10:13.542Z,4.65
2017-11-07T11:12:41.243Z,5.03
2017-11-07T11:15:08.667Z,4.27
2017-11-07T11:17:36.142Z,3.77
2017-11-07T11:20:03.606Z,5.23
2017-11-07T11:22:31.062Z,4.10
2017-11-07T11:24:58.747Z,3.80
2017-11-07T11:27:26.193Z,5.37
2017-11-07T11:29:53.624Z,4.20
2017-11-07T11:32:21.069Z,3.53
2017-11-07T11:34:48.540Z,4.60
2017-11-07T11:37:16.305Z,3.60
2017-11-07T11:39:43.725Z,5.10
2017-11-07T11:42:11.969Z,4.27
2017-11-07T11:44:39.418Z,5.45
2017-11-07T11:47:06.880Z,5.50
2017-11-07T11:49:34.633Z,4.03
2017-11-07T11:52:02.892Z,4.33
2017-11-07T11:54:30.305Z,5.00
2017-11-07T11:56:58.527Z,4.97
2017-11-07T11:59:25.962Z,5.33
2017-11-07T12:01:53.761Z,3.53
2017-11-07T12:04:21.189Z,3.40
2017-11-07T12:06:48.621Z,5.37
2017-11-07T12:09:16.838Z,5.10
2017-11-07T12:11:44.306Z,4.30
2017-11-07T12:14:12.077Z,3.87
2017-11-07T12:16:39.537Z,5.13
2017-11-07T12:19:06.988Z,3.43
2017-11-07T12:21:34.429Z,4.30
2017-11-07T12:24:01.869Z,5.80
2017-11-07T12:26:29.661Z,3.90
2017-11-07T12:28:57.084Z,4.07
2017-11-07T12:31:24.538Z,4.50
2017-11-07T12:33:52.733Z,5.45
2017-11-07T12:36:20.173Z,5.18
2017-11-07T12:38:47.880Z,4.97
2017-11-07T12:41:15.301Z,4.57
2017-11-07T12:43:42.733Z,6.37
2017-11-07T12:46:10.942Z,4.80
2017-11-07T12:48:38.373Z,5.30
2017-11-07T12:51:28.273Z,5.13
2017-11-07T12:53:55.697Z,4.37
2017-11-07T12:56:23.424Z,4.60
2017-11-07T12:58:51.621Z,4.40
2017-11-07T13:01:19.143Z,5.23
2017-11-07T13:03:46.566Z,4.40
2017-11-07T13:06:14.761Z,5.15
2017-11-07T13:08:42.645Z,4.60
2017-11-07T13:11:10.064Z,4.70
2017-11-07T13:13:38.291Z,4.13
2017-11-07T13:16:05.733Z,5.17
2017-11-07T13:18:33.158Z,5.40
2017-11-07T13:21:01.681Z,3.50
2017-11-07T13:23:29.109Z,5.20
2017-11-07T13:25:56.542Z,5.60
2017-11-07T13:28:24.869Z,4.13
2017-11-07T13:30:52.305Z,6.93
2017-11-07T13:33:20.181Z,3.70
2017-11-07T13:35:47.637Z,5.70
2017-11-07T13:38:15.052Z,3.80
2017-11-07T13:40:43.258Z,3.40
2017-11-07T13:43:10.689Z,4.50
2017-11-07T13:45:39.233Z,4.47
2017-11-07T13:48:06.674Z,4.63
2017-11-07T13:50:34.127Z,6.03
2017-11-07T13:53:01.555Z,4.90
2017-11-07T13:55:29.774Z,5.00
2017-11-07T13:57:57.538Z,6.53
2017-11-07T14:00:24.965Z,4.23
2017-11-07T14:02:52.401Z,4.00
2017-11-07T14:05:20.617Z,5.62
2017-11-07T14:07:48.062Z,4.50
2017-11-07T14:10:15.845Z,4.80
2017-11-07T14:12:43.314Z,3.67
2017-11-07T14:15:10.729Z,4.13
2017-11-07T14:17:38.175Z,3.97
2017-11-07T14:20:06.370Z,3.27
2017-11-07T14:22:34.165Z,3.37
2017-11-07T14:25:01.608Z,5.00
2017-11-07T14:27:29.037Z,4.57
2017-11-07T14:29:56.488Z,4.93
2017-11-07T14:32:24.680Z,4.20
2017-11-07T14:34:52.489Z,4.23
2017-11-07T14:37:20.040Z,3.37
2017-11-07T14:39:47.479Z,3.23
2017-11-07T14:42:14.945Z,4.50
2017-11-07T14:44:42.382Z,4.13
2017-11-07T14:47:10.158Z,3.67
2017-11-07T14:49:37.624Z,5.50
2017-11-07T14:52:05.082Z,5.80
2017-11-07T14:54:32.623Z,4.77
2017-11-07T14:57:00.105Z,4.03
2017-11-07T14:59:27.862Z,4.27
2017-11-07T15:01:55.309Z,4.17
2017-11-07T15:04:22.743Z,4.50
2017-11-07T15:06:51.053Z,6.17
2017-11-07T15:09:18.493Z,3.97
2017-11-07T15:11:46.185Z,4.50
2017-11-07T15:14:13.646Z,3.77
2017-11-07T15:16:41.060Z,4.33
2017-11-07T15:19:08.531Z,5.23
2017-11-07T15:21:35.941Z,3.87
2017-11-07T15:24:05.205Z,3.67
2017-11-07T15:26:32.634Z,5.33
2017-11-07T15:29:00.121Z,5.47
2017-11-07T15:31:27.569Z,4.87
2017-11-07T15:33:54.993Z,5.67
2017-11-07T15:36:22.804Z,5.20
2017-11-07T15:38:50.234Z,5.43
2017-11-07T15:41:17.699Z,4.27
2017-11-07T15:43:45.115Z,7.50
2017-11-07T15:46:13.328Z,5.33
2017-11-07T15:48:41.127Z,3.97
2017-11-07T15:51:08.601Z,4.43
2017-11-07T15:53:36.022Z,5.87
2017-11-07T15:56:03.472Z,5.93
2017-11-07T15:58:30.941Z,4.73
2017-11-07T16:00:58.654Z,5.03
2017-11-07T16:03:26.857Z,4.83
2017-11-07T16:05:54.290Z,6.70
2017-11-07T16:08:22.597Z,6.60
2017-11-07T16:10:50.013Z,4.13
2017-11-07T16:13:18.561Z,5.07
2017-11-07T16:15:46.099Z,4.70
2017-11-07T16:18:13.506Z,6.37
2017-11-07T16:20:40.949Z,6.30
2017-11-07T16:23:09.410Z,6.40
2017-11-07T16:25:37.176Z,4.50
2017-11-07T16:28:04.714Z,6.37
2017-11-07T16:30:32.126Z,3.60
2017-11-07T16:33:00.340Z,5.63
2017-11-07T16:35:27.776Z,6.37
2017-11-07T16:37:56.386Z,4.40
2017-11-07T16:40:23.859Z,5.60
2017-11-07T16:42:51.296Z,5.80
2017-11-07T16:45:18.741Z,6.03
2017-11-07T16:47:46.174Z,6.20
2017-11-07T16:50:14.712Z,4.97
2017-11-07T16:52:42.166Z,6.17
2017-11-07T16:55:09.594Z,5.70
2017-11-07T16:57:37.798Z,4.90
2017-11-07T17:00:05.233Z,5.13
2017-11-07T17:02:33.033Z,4.87
2017-11-07T17:05:00.469Z,7.23
2017-11-07T17:07:27.895Z,5.43
2017-11-07T17:09:56.113Z,7.67
2017-11-07T17:12:23.554Z,6.77
2017-11-07T17:14:51.270Z,6.83
2017-11-07T17:17:18.685Z,5.77
2017-11-07T17:19:46.129Z,5.60
2017-11-07T17:22:13.562Z,5.40
2017-11-07T17:24:41.765Z,7.93
2017-11-07T17:27:09.546Z,5.00
2017-11-07T17:29:36.989Z,6.90
2017-11-07T17:32:04.409Z,6.67
2017-11-07T17:34:32.742Z,6.33
2017-11-07T17:37:00.172Z,7.80
2017-11-07T17:39:27.968Z,6.33
2017-11-07T17:41:55.422Z,5.80
2017-11-07T17:44:22.874Z,4.60
2017-11-07T17:46:50.319Z,7.60
2017-11-07T17:49:17.798Z,6.97
2017-11-07T17:51:45.558Z,4.43
2017-11-07T17:54:12.986Z,6.10
2017-11-07T17:56:40.421Z,6.33
2017-11-07T17:59:08.737Z,5.83
2017-11-07T18:01:36.137Z,5.97
2017-11-07T18:04:03.581Z,6.63
2017-11-07T18:06:31.113Z,4.87
2017-11-07T18:08:58.800Z,7.03
2017-11-07T18:11:26.341Z,7.60
2017-11-07T18:13:53.765Z,7.57
2017-11-07T18:16:21.205Z,5.17
2017-11-07T18:18:49.401Z,6.30
2017-11-07T18:21:16.924Z,5.83
2017-11-07T18:23:44.374Z,6.57
2017-11-07T18:26:12.057Z,6.30
2017-11-07T18:28:40.257Z,4.10
2017-11-07T18:31:07.741Z,5.30
2017-11-07T18:33:35.181Z,6.27
2017-11-07T18:36:02.616Z,6.60
2017-11-07T18:38:30.834Z,6.73
2017-11-07T18:40:58.279Z,6.03
2017-11-07T18:43:26.049Z,7.40
2017-11-07T18:45:54.285Z,6.63
2017-11-07T18:48:21.715Z,7.00
2017-11-07T18:50:49.161Z,8.93
2017-11-07T18:53:16.605Z,6.77
2017-11-07T18:55:44.305Z,6.13
2017-11-07T18:58:11.909Z,8.07
2017-11-07T19:00:39.317Z,5.47
2017-11-07T19:03:07.525Z,8.07
2017-11-07T19:05:34.966Z,7.83
2017-11-07T19:08:02.388Z,4.80
2017-11-07T19:10:29.841Z,4.60
2017-11-07T19:12:57.606Z,7.00
2017-11-07T19:15:25.014Z,6.60
2017-11-07T19:17:52.441Z,7.10
2017-11-07T19:20:20.658Z,8.33
2017-11-07T19:22:48.090Z,8.20
2017-11-07T19:25:16.297Z,7.23
2017-11-07T19:27:43.774Z,6.60
2017-11-07T19:30:11.518Z,6.73
2017-11-07T19:32:38.996Z,5.13
2017-11-07T19:35:06.434Z,7.57
2017-11-07T19:37:33.881Z,7.10
2017-11-07T19:40:01.320Z,7.20
2017-11-07T19:42:29.638Z,8.03
2017-11-07T19:44:57.093Z,6.33
2017-11-07T19:47:24.858Z,6.50
2017-11-07T19:49:52.310Z,6.40
2017-11-07T19:52:19.713Z,6.40
2017-11-07T19:54:47.233Z,7.40
2017-11-07T19:57:14.661Z,5.37
2017-11-07T19:59:42.100Z,7.90
2017-11-07T20:02:10.294Z,6.03
2017-11-07T20:04:38.094Z,7.40
2017-11-07T20:07:05.520Z,6.70
2017-11-07T20:09:32.963Z,10.23
2017-11-07T20:12:01.218Z,7.87
2017-11-07T20:14:28.654Z,8.57
2017-11-07T20:16:56.095Z,6.40
2017-11-07T20:19:23.537Z,7.07
2017-11-07T20:21:51.013Z,10.03
2017-11-07T20:24:18.453Z,7.90
2017-11-07T20:26:45.904Z,8.30
2017-11-07T20:29:13.589Z,6.90
2017-11-07T20:31:41.041Z,9.27
2017-11-07T20:34:08.481Z,6.40
2017-11-07T20:36:35.962Z,6.80
2017-11-07T20:39:03.398Z,6.87
2017-11-07T20:41:30.854Z,6.00
2017-11-07T20:43:58.329Z,7.40
2017-11-07T20:46:25.803Z,6.87
2017-11-07T20:48:53.249Z,7.47
2017-11-07T20:51:20.674Z,5.63
2017-11-07T20:53:48.245Z,6.20
2017-11-07T20:56:15.666Z,5.70
2017-11-07T20:58:43.869Z,7.00
2017-11-07T21:01:11.320Z,4.33
2017-11-07T21:03:38.842Z,6.07
2017-11-07T21:06:07.055Z,5.80
2017-11-07T21:08:34.497Z,6.53
2017-11-07T21:11:02.713Z,6.60
2017-11-07T21:13:30.153Z,6.73
2017-11-07T21:15:57.587Z,5.73
2017-11-07T21:18:25.785Z,6.33
2017-11-07T21:20:55.217Z,5.10
2017-11-07T21:23:22.668Z,7.67
2017-11-07T21:25:50.099Z,5.30
2017-11-07T21:28:17.585Z,6.90
2017-11-07T21:30:45.042Z,6.23
2017-11-07T21:33:12.467Z,4.10
2017-11-07T21:35:39.909Z,6.53
2017-11-07T21:38:07.339Z,6.47
2017-11-07T21:40:35.550Z,7.50
2017-11-07T21:43:02.976Z,6.93
2017-11-07T21:45:30.589Z,6.00
2017-11-07T21:47:57.998Z,6.60
2017-11-07T21:50:26.192Z,7.50
2017-11-07T21:52:54.411Z,6.60
2017-11-07T21:55:21.825Z,5.33
2017-11-07T21:57:50.141Z,8.83
2017-11-07T22:00:17.569Z,6.63
2017-11-07T22:02:45.367Z,6.33
2017-11-07T22:05:13.113Z,7.27
2017-11-07T22:07:40.733Z,6.03
2017-11-07T22:10:17.818Z,6.47
2017-11-07T22:12:46.138Z,8.73
2017-11-07T22:15:13.578Z,7.73
2017-11-07T22:17:41.018Z,6.87
2017-11-07T22:20:08.447Z,7.93
2017-11-07T22:22:41.617Z,6.40
2017-11-07T22:25:23.746Z,7.00
2017-11-07T22:27:52.793Z,6.17
2017-11-07T22:30:20.202Z,7.23
2017-11-07T22:32:47.640Z,5.90
2017-11-07T22:35:15.089Z,7.40
2017-11-07T22:37:42.532Z,7.37
2017-11-07T22:40:09.971Z,8.50
2017-11-07T22:42:37.450Z,6.97
2017-11-07T22:45:04.917Z,5.07
2017-11-07T22:47:32.343Z,7.90
2017-11-07T22:50:00.137Z,5.70
2017-11-07T22:52:27.593Z,5.63
2017-11-07T22:54:55.041Z,6.67
2017-11-07T22:57:22.590Z,5.90
2017-11-07T22:59:50.064Z,7.13
2017-11-07T23:02:17.503Z,5.60
2017-11-07T23:04:44.932Z,4.93
2017-11-07T23:07:13.140Z,6.07
2017-11-07T23:09:40.603Z,8.57
2017-11-07T23:12:08.031Z,4.83
2017-11-07T23:14:36.237Z,7.67
2017-11-07T23:17:03.674Z,5.67
2017-11-07T23:19:31.116Z,5.50
2017-11-07T23:22:00.197Z,5.43
2017-11-07T23:24:28.417Z,5.77
2017-11-07T23:26:55.845Z,6.03
2017-11-07T23:29:24.045Z,5.50
2017-11-07T23:31:51.486Z,7.60
2017-11-07T23:34:18.917Z,8.70
2017-11-07T23:36:47.130Z,5.27
2017-11-07T23:39:14.616Z,6.83
2017-11-07T23:41:42.061Z,6.07
2017-11-07T23:44:09.509Z,7.00
2017-11-07T23:46:36.978Z,6.00
2017-11-07T23:49:04.745Z,6.60
2017-11-07T23:51:34.092Z,7.07
2017-11-07T23:54:02.293Z,6.33
2017-11-07T23:56:29.763Z,6.93
2017-11-07T23:58:58.044Z,6.17
